LXGB

Gibraltar Airport

Airport
ICAO code
LXGB
IATA Code
GIB
Summary
ICAO Region
EUR
ICAO Territory
Location

Gibraltar, Gibraltar

Serving
Gibraltar
Elevation
10 ft
Coordinates
36° 9' 4" N , 5° 20' 54" W
KCC
Airport RE
Crosswind Landings
Airport WX
Low Level Turbulence
Metar
LXGB 270720Z 24007KT 9999 FEW010 21/16 Q1016 NOSIG

International airport serving the British Overseas Territory of Gibraltar.

Climatology

Dry-summer subtropical ”Mediterranean" climate (Köppen climate classification Csa) - characterized by hot, dry summers and mild winters. During the summer, subtropical high pressure cells dominate, making rainfall unlikely except for the occasional thunderstorm. In the winter, periodic storms bring rain.

Runways

Designator Length Width Surface Rops
9/27 1829 46 ASP Yes/Yes

Airport map

Aerial View

SKYbrary Partners:

Safety knowledge contributed by: